YEN weather

Estevan Airport
Estevan, Saskatchewan, Canada

Public forecast

Using degrees Celsius for public forecast. Weather courtesy of forecast.io.

METAR (pilot weather report)

Retrieved 2019/05/19 11:00 UTC (49 minutes ago):

CYEN 191100Z AUTO 03008KT 9SM OVC210 M00/M02 A3014 RMK SLP226

TAF (pilot weather forecast)

Forecast is more than 12 hours old.

Retrieved 2019/05/18 18:00 UTC (18 hours ago):

TAF CYEN 181741Z 1818/1824 06025G35KT P6SM OVC190 BECMG 1820/1822 06020G30KT RMK FCST BASED ON AUTO OBS. NXT FCST WILL BE ISSUED AT 191145Z